メインページ
METAR-TAF:

METAR-TAF

空港 :

ブルネイ国際空港

ブルネイ, ブルネイ

緯度: 04-56N, 経度: 114-56E, 海抜: 22m

現時点の気象観測

当レポートは35分前の04:30(UTC)に作成
南/南西の風 6kt
気温 33°C
湿度 71%
気圧 1011 hPa
視程10km以上
高度1600ftの雲は散在している
高度30000ftの千切れ雲あり

METAR: WBSB 150430Z 21006KT 9999 SCT016 BKN300 33/27 Q1011 NOSIG

時間: 13:05 (05:05 UTC)

予報

当レポートは6時間5分前の23:00(UTC)に作成
予報は15日の 00時(UTC)から 16日の 06時(UTC)まで有効
南/南西の風 4kt
視程10km以上
高度1400ftの雲はほとんどない
高度1500ftの雲はほとんどない, 積乱雲.
15日の 03時(UTC)から 15日の 05時(UTC)まで徐々に
北/北西の風 8kt
高度1600ftの雲はほとんどない

TAF: WBSB 142300Z 1500/1606 20004KT 9999 FEW014 FEW015CB BECMG 1503/1505 33008KT FEW016

4,000以上の空港の気象観測と天気予報(METAR報とTAF報)

利用可能な観測所は地図上に黄色い丸と赤い丸で示す。

丸の上にカーソルを重ねると観測所名を参照できる。

次にクリックすると気象観測と天気予報を参照できる。

マップの切り替え:黒色「×」印の緑ボタンをクリックして拡大、「-」印の緑ボタンをクリックして縮小、緑色の三角印をクリックして隣りの地図に切り替え


METAR-TAF: